sensor_id;sensor_type;location;lat;lon;timestamp;pressure;altitude;pressure_sealevel;temperature;humidity
3082;BME280;1551;51.046;7.010;2023-04-09T00:01:30;101836.19;;;9.16;nan
3082;BME280;1551;51.046;7.010;2023-04-09T00:04:19;101833.53;;;9.08;nan
3082;BME280;1551;51.046;7.010;2023-04-09T00:07:10;101831.00;;;9.10;nan
3082;BME280;1551;51.046;7.010;2023-04-09T00:09:59;101835.25;;;9.09;nan
3082;BME280;1551;51.046;7.010;2023-04-09T00:12:48;101824.94;;;9.03;nan
3082;BME280;1551;51.046;7.010;2023-04-09T00:15:37;101832.53;;;8.97;nan
3082;BME280;1551;51.046;7.010;2023-04-09T00:18:26;101827.44;;;8.98;nan
3082;BME280;1551;51.046;7.010;2023-04-09T00:21:15;101826.47;;;8.90;nan
3082;BME280;1551;51.046;7.010;2023-04-09T00:24:04;101830.59;;;8.82;nan
3082;BME280;1551;51.046;7.010;2023-04-09T00:26:53;101825.34;;;8.73;nan
3082;BME280;1551;51.046;7.010;2023-04-09T00:29:43;101826.16;;;8.72;nan
3082;BME280;1551;51.046;7.010;2023-04-09T00:32:32;101823.69;;;8.75;nan
3082;BME280;1551;51.046;7.010;2023-04-09T00:35:21;101818.50;;;8.69;nan
3082;BME280;1551;51.046;7.010;2023-04-09T00:38:10;101820.22;;;8.72;nan
3082;BME280;1551;51.046;7.010;2023-04-09T00:40:59;101818.38;;;8.63;nan
3082;BME280;1551;51.046;7.010;2023-04-09T00:43:48;101819.09;;;8.53;nan
3082;BME280;1551;51.046;7.010;2023-04-09T00:46:38;101811.25;;;8.44;nan
3082;BME280;1551;51.046;7.010;2023-04-09T00:49:27;101806.00;;;8.35;nan
3082;BME280;1551;51.046;7.010;2023-04-09T00:52:16;101806.88;;;8.37;nan
3082;BME280;1551;51.046;7.010;2023-04-09T00:55:05;101813.88;;;8.47;nan
3082;BME280;1551;51.046;7.010;2023-04-09T00:57:56;101813.88;;;8.47;nan
3082;BME280;1551;51.046;7.010;2023-04-09T01:00:45;101812.03;;;8.40;nan
3082;BME280;1551;51.046;7.010;2023-04-09T01:03:34;101807.78;;;8.39;nan
3082;BME280;1551;51.046;7.010;2023-04-09T01:06:36;101814.66;;;8.43;nan
3082;BME280;1551;51.046;7.010;2023-04-09T01:09:30;101812.56;;;8.22;nan
3082;BME280;1551;51.046;7.010;2023-04-09T01:12:29;101808.06;;;8.09;nan
3082;BME280;1551;51.046;7.010;2023-04-09T01:15:30;101801.94;;;7.98;nan
3082;BME280;1551;51.046;7.010;2023-04-09T01:18:28;101799.28;;;7.92;nan
3082;BME280;1551;51.046;7.010;2023-04-09T01:21:20;101789.88;;;7.90;nan
3082;BME280;1551;51.046;7.010;2023-04-09T01:27:22;101804.38;;;7.92;nan
3082;BME280;1551;51.046;7.010;2023-04-09T01:30:17;101803.44;;;7.89;nan
3082;BME280;1551;51.046;7.010;2023-04-09T01:33:08;101803.34;;;7.83;nan
3082;BME280;1551;51.046;7.010;2023-04-09T01:35:59;101809.28;;;7.83;nan
3082;BME280;1551;51.046;7.010;2023-04-09T01:38:49;101803.44;;;7.87;nan
3082;BME280;1551;51.046;7.010;2023-04-09T01:41:39;101807.56;;;7.82;nan
3082;BME280;1551;51.046;7.010;2023-04-09T01:44:29;101806.63;;;7.77;nan
3082;BME280;1551;51.046;7.010;2023-04-09T01:47:19;101804.84;;;7.73;nan
3082;BME280;1551;51.046;7.010;2023-04-09T01:50:09;101812.34;;;7.66;nan
3082;BME280;1551;51.046;7.010;2023-04-09T01:52:59;101807.25;;;7.67;nan
3082;BME280;1551;51.046;7.010;2023-04-09T01:55:49;101805.50;;;7.63;nan
3082;BME280;1551;51.046;7.010;2023-04-09T01:58:38;101809.97;;;7.75;nan
3082;BME280;1551;51.046;7.010;2023-04-09T02:01:33;101801.59;;;7.80;nan
3082;BME280;1551;51.046;7.010;2023-04-09T02:04:32;101811.97;;;7.91;nan
3082;BME280;1551;51.046;7.010;2023-04-09T02:07:37;101796.75;;;7.95;nan
3082;BME280;1551;51.046;7.010;2023-04-09T02:10:30;101782.25;;;7.91;nan
3082;BME280;1551;51.046;7.010;2023-04-09T02:13:22;101805.22;;;7.93;nan
3082;BME280;1551;51.046;7.010;2023-04-09T02:16:12;101802.63;;;7.90;nan
3082;BME280;1551;51.046;7.010;2023-04-09T02:19:03;101801.72;;;7.88;nan
3082;BME280;1551;51.046;7.010;2023-04-09T02:21:52;101794.81;;;7.82;nan
3082;BME280;1551;51.046;7.010;2023-04-09T02:24:41;101806.56;;;7.74;nan
3082;BME280;1551;51.046;7.010;2023-04-09T02:27:30;101800.56;;;7.72;nan
3082;BME280;1551;51.046;7.010;2023-04-09T02:30:19;101803.03;;;7.68;nan
3082;BME280;1551;51.046;7.010;2023-04-09T02:33:08;101762.56;;;7.41;nan
3082;BME280;1551;51.046;7.010;2023-04-09T02:35:57;101796.03;;;7.57;nan
3082;BME280;1551;51.046;7.010;2023-04-09T02:38:46;101785.81;;;7.54;nan
3082;BME280;1551;51.046;7.010;2023-04-09T02:41:35;101792.59;;;7.54;nan
3082;BME280;1551;51.046;7.010;2023-04-09T02:44:24;101786.59;;;7.52;nan
3082;BME280;1551;51.046;7.010;2023-04-09T02:47:13;101786.53;;;7.49;nan
3082;BME280;1551;51.046;7.010;2023-04-09T02:50:03;101785.50;;;7.41;nan
3082;BME280;1551;51.046;7.010;2023-04-09T02:52:55;101789.66;;;7.36;nan
3082;BME280;1551;51.046;7.010;2023-04-09T02:55:44;101786.97;;;7.30;nan
3082;BME280;1551;51.046;7.010;2023-04-09T02:58:33;101784.31;;;7.24;nan
3082;BME280;1551;51.046;7.010;2023-04-09T03:01:22;101779.06;;;7.16;nan
3082;BME280;1551;51.046;7.010;2023-04-09T03:04:11;101783.16;;;7.10;nan
3082;BME280;1551;51.046;7.010;2023-04-09T03:07:00;101776.25;;;7.04;nan
3082;BME280;1551;51.046;7.010;2023-04-09T03:09:49;101772.69;;;6.96;nan
3082;BME280;1551;51.046;7.010;2023-04-09T03:12:39;101770.84;;;6.89;nan
3082;BME280;1551;51.046;7.010;2023-04-09T03:15:28;101765.66;;;6.86;nan
3082;BME280;1551;51.046;7.010;2023-04-09T03:18:16;101780.84;;;6.83;nan
3082;BME280;1551;51.046;7.010;2023-04-09T03:21:06;101774.88;;;6.81;nan
3082;BME280;1551;51.046;7.010;2023-04-09T03:23:57;101770.59;;;6.78;nan
3082;BME280;1551;51.046;7.010;2023-04-09T03:26:46;101764.59;;;6.76;nan
3082;BME280;1551;51.046;7.010;2023-04-09T03:29:37;101756.00;;;6.71;nan
3082;BME280;1551;51.046;7.010;2023-04-09T03:32:26;101768.44;;;6.59;nan
3082;BME280;1551;51.046;7.010;2023-04-09T03:35:15;101753.91;;;6.54;nan
3082;BME280;1551;51.046;7.010;2023-04-09T03:38:06;101758.94;;;6.52;nan
3082;BME280;1551;51.046;7.010;2023-04-09T03:40:55;101762.78;;;6.35;nan
3082;BME280;1551;51.046;7.010;2023-04-09T03:43:44;101763.53;;;6.31;nan
3082;BME280;1551;51.046;7.010;2023-04-09T03:46:40;101760.28;;;6.37;nan
3082;BME280;1551;51.046;7.010;2023-04-09T03:49:35;101757.72;;;6.37;nan
3082;BME280;1551;51.046;7.010;2023-04-09T03:52:31;101749.91;;;6.29;nan
3082;BME280;1551;51.046;7.010;2023-04-09T03:55:26;101752.38;;;6.26;nan
3082;BME280;1551;51.046;7.010;2023-04-09T03:58:16;101758.22;;;6.22;nan
3082;BME280;1551;51.046;7.010;2023-04-09T04:01:05;101756.31;;;6.13;nan
3082;BME280;1551;51.046;7.010;2023-04-09T04:04:00;101757.13;;;6.12;nan
3082;BME280;1551;51.046;7.010;2023-04-09T04:06:58;101750.91;;;6.01;nan
3082;BME280;1551;51.046;7.010;2023-04-09T04:09:51;101756.81;;;6.00;nan
3082;BME280;1551;51.046;7.010;2023-04-09T04:12:41;101753.47;;;6.01;nan
3082;BME280;1551;51.046;7.010;2023-04-09T04:15:41;101758.63;;;6.04;nan
3082;BME280;1551;51.046;7.010;2023-04-09T04:18:32;101758.63;;;6.04;nan
3082;BME280;1551;51.046;7.010;2023-04-09T04:21:21;101755.00;;;5.95;nan
3082;BME280;1551;51.046;7.010;2023-04-09T04:24:18;101754.44;;;5.75;nan
3082;BME280;1551;51.046;7.010;2023-04-09T04:27:08;101752.63;;;5.71;nan
3082;BME280;1551;51.046;7.010;2023-04-09T04:29:58;101746.53;;;5.65;nan
3082;BME280;1551;51.046;7.010;2023-04-09T04:33:04;101747.31;;;5.62;nan
3082;BME280;1551;51.046;7.010;2023-04-09T04:38:59;101742.22;;;5.62;nan
3082;BME280;1551;51.046;7.010;2023-04-09T04:41:53;101744.78;;;5.62;nan
3082;BME280;1551;51.046;7.010;2023-04-09T04:44:47;101755.75;;;5.61;nan
3082;BME280;1551;51.046;7.010;2023-04-09T04:47:53;101743.00;;;5.60;nan
3082;BME280;1551;51.046;7.010;2023-04-09T04:50:42;101750.53;;;5.56;nan
3082;BME280;1551;51.046;7.010;2023-04-09T04:53:32;101743.88;;;5.60;nan
3082;BME280;1551;51.046;7.010;2023-04-09T04:56:26;101753.94;;;5.57;nan
3082;BME280;1551;51.046;7.010;2023-04-09T04:59:23;101755.28;;;5.44;nan
3082;BME280;1551;51.046;7.010;2023-04-09T05:02:25;101755.22;;;5.41;nan
3082;BME280;1551;51.046;7.010;2023-04-09T05:05:33;101758.47;;;5.37;nan
3082;BME280;1551;51.046;7.010;2023-04-09T05:08:23;101757.34;;;5.28;nan
3082;BME280;1551;51.046;7.010;2023-04-09T05:11:14;101761.59;;;5.29;nan
3082;BME280;1551;51.046;7.010;2023-04-09T05:14:06;101754.09;;;5.32;nan
3082;BME280;1551;51.046;7.010;2023-04-09T05:16:55;101760.06;;;5.34;nan
3082;BME280;1551;51.046;7.010;2023-04-09T05:19:52;101762.03;;;5.44;nan
3082;BME280;1551;51.046;7.010;2023-04-09T05:22:47;101754.69;;;5.53;nan
3082;BME280;1551;51.046;7.010;2023-04-09T05:25:37;101759.13;;;5.60;nan
3082;BME280;1551;51.046;7.010;2023-04-09T05:28:26;101762.50;;;5.61;nan
3082;BME280;1551;51.046;7.010;2023-04-09T05:31:25;101770.16;;;5.62;nan
3082;BME280;1551;51.046;7.010;2023-04-09T05:34:26;101768.66;;;5.69;nan
3082;BME280;1551;51.046;7.010;2023-04-09T05:37:17;101774.63;;;5.71;nan
3082;BME280;1551;51.046;7.010;2023-04-09T05:40:13;101770.91;;;5.88;nan
3082;BME280;1551;51.046;7.010;2023-04-09T05:43:03;101771.25;;;6.01;nan
3082;BME280;1551;51.046;7.010;2023-04-09T05:46:00;101770.69;;;6.13;nan
3082;BME280;1551;51.046;7.010;2023-04-09T05:48:50;101773.56;;;6.27;nan
3082;BME280;1551;51.046;7.010;2023-04-09T05:51:39;101771.25;;;6.36;nan
3082;BME280;1551;51.046;7.010;2023-04-09T05:54:28;101773.31;;;6.50;nan
3082;BME280;1551;51.046;7.010;2023-04-09T05:57:17;101772.75;;;6.62;nan
3082;BME280;1551;51.046;7.010;2023-04-09T06:00:13;101776.44;;;6.74;nan
3082;BME280;1551;51.046;7.010;2023-04-09T06:03:06;101772.41;;;6.84;nan
3082;BME280;1551;51.046;7.010;2023-04-09T06:05:54;101769.34;;;6.99;nan
3082;BME280;1551;51.046;7.010;2023-04-09T06:08:44;101764.66;;;7.18;nan
3082;BME280;1551;51.046;7.010;2023-04-09T06:11:33;101766.88;;;7.43;nan
3082;BME280;1551;51.046;7.010;2023-04-09T06:14:22;101760.59;;;7.68;nan
3082;BME280;1551;51.046;7.010;2023-04-09T06:17:11;101762.72;;;7.92;nan
3082;BME280;1551;51.046;7.010;2023-04-09T06:20:00;101767.34;;;8.12;nan
3082;BME280;1551;51.046;7.010;2023-04-09T06:22:49;101778.75;;;8.32;nan
3082;BME280;1551;51.046;7.010;2023-04-09T06:25:38;101777.34;;;8.51;nan
3082;BME280;1551;51.046;7.010;2023-04-09T06:28:28;101770.03;;;8.72;nan
3082;BME280;1551;51.046;7.010;2023-04-09T06:31:17;101778.84;;;8.92;nan
3082;BME280;1551;51.046;7.010;2023-04-09T06:34:06;101779.19;;;9.18;nan
3082;BME280;1551;51.046;7.010;2023-04-09T06:36:55;101771.84;;;9.44;nan
3082;BME280;1551;51.046;7.010;2023-04-09T06:39:44;101784.94;;;9.71;nan
3082;BME280;1551;51.046;7.010;2023-04-09T06:42:33;101786.03;;;9.91;nan
3082;BME280;1551;51.046;7.010;2023-04-09T06:45:39;101788.88;;;10.18;nan
3082;BME280;1551;51.046;7.010;2023-04-09T06:48:29;101786.47;;;10.35;nan
3082;BME280;1551;51.046;7.010;2023-04-09T06:51:19;101786.63;;;10.56;nan
3082;BME280;1551;51.046;7.010;2023-04-09T06:54:08;101792.72;;;10.70;nan
3082;BME280;1551;51.046;7.010;2023-04-09T06:56:57;101796.31;;;10.96;nan
3082;BME280;1551;51.046;7.010;2023-04-09T06:59:46;101792.19;;;11.24;nan
3082;BME280;1551;51.046;7.010;2023-04-09T07:02:35;101787.06;;;11.27;nan
3082;BME280;1551;51.046;7.010;2023-04-09T07:05:24;101802.53;;;11.47;nan
3082;BME280;1551;51.046;7.010;2023-04-09T07:08:13;101802.69;;;11.80;nan
3082;BME280;1551;51.046;7.010;2023-04-09T07:11:02;101796.72;;;11.90;nan
3082;BME280;1551;51.046;7.010;2023-04-09T07:13:51;101805.28;;;11.95;nan
3082;BME280;1551;51.046;7.010;2023-04-09T07:16:40;101809.56;;;12.05;nan
3082;BME280;1551;51.046;7.010;2023-04-09T07:19:30;101813.00;;;12.04;nan
3082;BME280;1551;51.046;7.010;2023-04-09T07:22:20;101811.28;;;12.08;nan
3082;BME280;1551;51.046;7.010;2023-04-09T07:25:10;101813.88;;;12.09;nan
3082;BME280;1551;51.046;7.010;2023-04-09T07:27:59;101814.75;;;12.20;nan
3082;BME280;1551;51.046;7.010;2023-04-09T07:30:48;101814.75;;;12.43;nan
3082;BME280;1551;51.046;7.010;2023-04-09T07:33:37;101828.44;;;12.66;nan
3082;BME280;1551;51.046;7.010;2023-04-09T07:36:26;101819.00;;;12.88;nan
3082;BME280;1551;51.046;7.010;2023-04-09T07:39:15;101820.69;;;13.19;nan
3082;BME280;1551;51.046;7.010;2023-04-09T07:42:05;101817.16;;;13.52;nan
3082;BME280;1551;51.046;7.010;2023-04-09T07:44:54;101814.56;;;13.53;nan
3082;BME280;1551;51.046;7.010;2023-04-09T07:47:44;101815.44;;;13.51;nan
3082;BME280;1551;51.046;7.010;2023-04-09T07:50:33;101808.66;;;13.33;nan
3082;BME280;1551;51.046;7.010;2023-04-09T07:53:22;101809.34;;;13.67;nan
3082;BME280;1551;51.046;7.010;2023-04-09T07:56:11;101817.75;;;14.04;nan
3082;BME280;1551;51.046;7.010;2023-04-09T07:59:01;101821.91;;;14.21;nan
3082;BME280;1551;51.046;7.010;2023-04-09T08:01:50;101820.03;;;14.51;nan
3082;BME280;1551;51.046;7.010;2023-04-09T08:04:39;101816.31;;;14.77;nan
3082;BME280;1551;51.046;7.010;2023-04-09T08:07:27;101819.59;;;14.97;nan
3082;BME280;1551;51.046;7.010;2023-04-09T08:10:16;101815.97;;;15.13;nan
3082;BME280;1551;51.046;7.010;2023-04-09T08:13:05;101821.03;;;15.23;nan
3082;BME280;1551;51.046;7.010;2023-04-09T08:15:54;101826.31;;;15.12;nan
3082;BME280;1551;51.046;7.010;2023-04-09T08:18:43;101810.50;;;15.41;nan
3082;BME280;1551;51.046;7.010;2023-04-09T08:21:32;101813.78;;;15.56;nan
3082;BME280;1551;51.046;7.010;2023-04-09T08:24:21;101811.84;;;15.72;nan
3082;BME280;1551;51.046;7.010;2023-04-09T08:27:10;101806.66;;;15.75;nan
3082;BME280;1551;51.046;7.010;2023-04-09T08:29:59;101811.69;;;15.82;nan
3082;BME280;1551;51.046;7.010;2023-04-09T08:32:48;101818.00;;;16.23;nan
3082;BME280;1551;51.046;7.010;2023-04-09T08:35:37;101815.16;;;16.41;nan
3082;BME280;1551;51.046;7.010;2023-04-09T08:38:28;101820.25;;;16.44;nan
3082;BME280;1551;51.046;7.010;2023-04-09T08:41:22;101814.69;;;16.70;nan
3082;BME280;1551;51.046;7.010;2023-04-09T08:44:12;101822.31;;;16.77;nan
3082;BME280;1551;51.046;7.010;2023-04-09T08:47:07;101821.16;;;16.41;nan
3082;BME280;1551;51.046;7.010;2023-04-09T08:49:58;101814.88;;;16.59;nan
3082;BME280;1551;51.046;7.010;2023-04-09T08:52:47;101817.25;;;17.17;nan
3082;BME280;1551;51.046;7.010;2023-04-09T08:55:37;101812.38;;;17.46;nan
3082;BME280;1551;51.046;7.010;2023-04-09T08:58:26;101820.94;;;17.05;nan
3082;BME280;1551;51.046;7.010;2023-04-09T09:01:22;101814.44;;;16.83;nan
3082;BME280;1551;51.046;7.010;2023-04-09T09:04:12;101809.94;;;16.93;nan
3082;BME280;1551;51.046;7.010;2023-04-09T09:07:05;101807.47;;;17.33;nan
3082;BME280;1551;51.046;7.010;2023-04-09T09:09:56;101802.94;;;17.42;nan
3082;BME280;1551;51.046;7.010;2023-04-09T09:12:46;101806.69;;;17.70;nan
3082;BME280;1551;51.046;7.010;2023-04-09T09:15:35;101802.56;;;17.62;nan
3082;BME280;1551;51.046;7.010;2023-04-09T09:18:38;101798.47;;;17.50;nan
3082;BME280;1551;51.046;7.010;2023-04-09T09:21:28;101799.47;;;17.00;nan
3082;BME280;1551;51.046;7.010;2023-04-09T09:24:18;101804.47;;;17.09;nan
3082;BME280;1551;51.046;7.010;2023-04-09T09:27:07;101784.72;;;17.47;nan
3082;BME280;1551;51.046;7.010;2023-04-09T09:29:56;101799.56;;;17.81;nan
3082;BME280;1551;51.046;7.010;2023-04-09T09:32:45;101791.97;;;17.72;nan
3082;BME280;1551;51.046;7.010;2023-04-09T09:35:51;101803.34;;;18.05;nan
3082;BME280;1551;51.046;7.010;2023-04-09T09:38:53;101800.81;;;18.02;nan
3082;BME280;1551;51.046;7.010;2023-04-09T09:41:44;101777.81;;;18.25;nan
3082;BME280;1551;51.046;7.010;2023-04-09T09:44:34;101799.41;;;18.24;nan
3082;BME280;1551;51.046;7.010;2023-04-09T09:47:23;101788.31;;;18.88;nan
3082;BME280;1551;51.046;7.010;2023-04-09T09:50:13;101788.59;;;19.41;nan
3082;BME280;1551;51.046;7.010;2023-04-09T09:53:04;101787.84;;;19.66;nan
3082;BME280;1551;51.046;7.010;2023-04-09T09:55:58;101789.41;;;20.52;nan
3082;BME280;1551;51.046;7.010;2023-04-09T09:58:53;101770.72;;;20.67;nan
3082;BME280;1551;51.046;7.010;2023-04-09T10:01:45;101776.00;;;21.13;nan
3082;BME280;1551;51.046;7.010;2023-04-09T10:04:35;101766.63;;;20.34;nan
3082;BME280;1551;51.046;7.010;2023-04-09T10:07:24;101771.75;;;19.23;nan
3082;BME280;1551;51.046;7.010;2023-04-09T10:10:13;101767.38;;;20.10;nan
3082;BME280;1551;51.046;7.010;2023-04-09T10:13:05;101775.78;;;21.19;nan
3082;BME280;1551;51.046;7.010;2023-04-09T10:15:55;101773.50;;;21.57;nan
3082;BME280;1551;51.046;7.010;2023-04-09T10:18:44;101764.97;;;21.30;nan
3082;BME280;1551;51.046;7.010;2023-04-09T10:21:41;101761.75;;;22.33;nan
3082;BME280;1551;51.046;7.010;2023-04-09T10:24:33;101765.88;;;22.99;nan
3082;BME280;1551;51.046;7.010;2023-04-09T10:27:22;101763.41;;;23.34;nan
3082;BME280;1551;51.046;7.010;2023-04-09T10:33:22;101762.31;;;21.32;nan
3082;BME280;1551;51.046;7.010;2023-04-09T10:36:17;101764.47;;;22.10;nan
3082;BME280;1551;51.046;7.010;2023-04-09T10:39:11;101757.09;;;23.00;nan
3082;BME280;1551;51.046;7.010;2023-04-09T10:42:11;101756.78;;;22.69;nan
3082;BME280;1551;51.046;7.010;2023-04-09T10:45:11;101752.00;;;20.81;nan
3082;BME280;1551;51.046;7.010;2023-04-09T10:48:02;101761.22;;;19.86;nan
3082;BME280;1551;51.046;7.010;2023-04-09T10:50:51;101753.00;;;19.44;nan
3082;BME280;1551;51.046;7.010;2023-04-09T10:53:40;101742.88;;;19.64;nan
3082;BME280;1551;51.046;7.010;2023-04-09T10:56:28;101746.09;;;22.53;nan
3082;BME280;1551;51.046;7.010;2023-04-09T10:59:17;101747.28;;;23.44;nan
3082;BME280;1551;51.046;7.010;2023-04-09T11:02:08;101755.16;;;23.24;nan
3082;BME280;1551;51.046;7.010;2023-04-09T11:10:51;101747.38;;;20.13;nan
3082;BME280;1551;51.046;7.010;2023-04-09T11:13:44;101729.69;;;19.12;nan
3082;BME280;1551;51.046;7.010;2023-04-09T11:16:33;101739.97;;;21.01;nan
3082;BME280;1551;51.046;7.010;2023-04-09T11:19:22;101728.53;;;22.17;nan
3082;BME280;1551;51.046;7.010;2023-04-09T11:22:11;101725.44;;;21.42;nan
3082;BME280;1551;51.046;7.010;2023-04-09T11:25:01;101728.72;;;20.51;nan
3082;BME280;1551;51.046;7.010;2023-04-09T11:27:51;101719.66;;;19.86;nan
3082;BME280;1551;51.046;7.010;2023-04-09T11:30:40;101715.03;;;19.40;nan
3082;BME280;1551;51.046;7.010;2023-04-09T11:33:31;101715.50;;;19.23;nan
3082;BME280;1551;51.046;7.010;2023-04-09T11:36:21;101712.78;;;18.99;nan
3082;BME280;1551;51.046;7.010;2023-04-09T11:39:10;101724.31;;;18.87;nan
3082;BME280;1551;51.046;7.010;2023-04-09T11:41:58;101714.06;;;18.83;nan
3082;BME280;1551;51.046;7.010;2023-04-09T11:44:48;101711.88;;;19.00;nan
3082;BME280;1551;51.046;7.010;2023-04-09T11:47:39;101705.16;;;18.93;nan
3082;BME280;1551;51.046;7.010;2023-04-09T11:50:31;101695.72;;;18.90;nan
3082;BME280;1551;51.046;7.010;2023-04-09T11:53:21;101701.00;;;19.16;nan
3082;BME280;1551;51.046;7.010;2023-04-09T11:56:11;101707.94;;;18.85;nan
3082;BME280;1551;51.046;7.010;2023-04-09T11:59:01;101704.53;;;18.85;nan
3082;BME280;1551;51.046;7.010;2023-04-09T12:01:50;101714.84;;;20.52;nan
3082;BME280;1551;51.046;7.010;2023-04-09T12:04:48;101706.56;;;20.15;nan
3082;BME280;1551;51.046;7.010;2023-04-09T12:07:37;101717.28;;;20.57;nan
3082;BME280;1551;51.046;7.010;2023-04-09T12:10:28;101699.97;;;22.14;nan
3082;BME280;1551;51.046;7.010;2023-04-09T12:13:18;101714.16;;;24.33;nan
3082;BME280;1551;51.046;7.010;2023-04-09T12:16:07;101707.69;;;25.84;nan
3082;BME280;1551;51.046;7.010;2023-04-09T12:19:08;101719.03;;;25.84;nan
3082;BME280;1551;51.046;7.010;2023-04-09T12:21:57;101720.19;;;23.64;nan
3082;BME280;1551;51.046;7.010;2023-04-09T12:24:46;101714.63;;;22.16;nan
3082;BME280;1551;51.046;7.010;2023-04-09T12:27:35;101699.44;;;20.94;nan
3082;BME280;1551;51.046;7.010;2023-04-09T12:30:24;101702.94;;;19.95;nan
3082;BME280;1551;51.046;7.010;2023-04-09T12:33:13;101696.69;;;19.74;nan
3082;BME280;1551;51.046;7.010;2023-04-09T12:36:02;101696.63;;;19.75;nan
3082;BME280;1551;51.046;7.010;2023-04-09T12:38:51;101691.59;;;19.42;nan
3082;BME280;1551;51.046;7.010;2023-04-09T12:41:40;101693.75;;;21.08;nan
3082;BME280;1551;51.046;7.010;2023-04-09T12:44:29;101696.31;;;21.54;nan
3082;BME280;1551;51.046;7.010;2023-04-09T12:47:18;101698.72;;;20.68;nan
3082;BME280;1551;51.046;7.010;2023-04-09T12:50:09;101687.34;;;19.95;nan
3082;BME280;1551;51.046;7.010;2023-04-09T12:52:58;101694.78;;;20.31;nan
3082;BME280;1551;51.046;7.010;2023-04-09T12:55:47;101690.06;;;22.22;nan
3082;BME280;1551;51.046;7.010;2023-04-09T12:58:36;101682.34;;;21.12;nan
3082;BME280;1551;51.046;7.010;2023-04-09T13:01:26;101692.88;;;19.56;nan
3082;BME280;1551;51.046;7.010;2023-04-09T13:04:14;101695.84;;;19.46;nan
3082;BME280;1551;51.046;7.010;2023-04-09T13:07:04;101683.59;;;19.49;nan
3082;BME280;1551;51.046;7.010;2023-04-09T13:09:54;101678.34;;;19.21;nan
3082;BME280;1551;51.046;7.010;2023-04-09T13:12:43;101675.00;;;19.47;nan
3082;BME280;1551;51.046;7.010;2023-04-09T13:15:33;101675.38;;;19.63;nan
3082;BME280;1551;51.046;7.010;2023-04-09T13:18:22;101675.94;;;19.45;nan
3082;BME280;1551;51.046;7.010;2023-04-09T13:21:11;101672.13;;;19.56;nan
3082;BME280;1551;51.046;7.010;2023-04-09T13:24:02;101672.38;;;19.75;nan
3082;BME280;1551;51.046;7.010;2023-04-09T13:26:52;101675.03;;;19.73;nan
3082;BME280;1551;51.046;7.010;2023-04-09T13:29:41;101670.34;;;19.00;nan
3082;BME280;1551;51.046;7.010;2023-04-09T13:32:30;101671.50;;;18.90;nan
3082;BME280;1551;51.046;7.010;2023-04-09T13:35:19;101677.28;;;18.69;nan
3082;BME280;1551;51.046;7.010;2023-04-09T13:38:08;101671.03;;;18.76;nan
3082;BME280;1551;51.046;7.010;2023-04-09T13:40:57;101670.69;;;18.59;nan
3082;BME280;1551;51.046;7.010;2023-04-09T13:43:46;101663.69;;;18.28;nan
3082;BME280;1551;51.046;7.010;2023-04-09T13:46:35;101661.72;;;18.04;nan
3082;BME280;1551;51.046;7.010;2023-04-09T13:49:24;101657.41;;;18.05;nan
3082;BME280;1551;51.046;7.010;2023-04-09T13:52:15;101664.38;;;18.01;nan
3082;BME280;1551;51.046;7.010;2023-04-09T13:55:04;101667.44;;;17.83;nan
3082;BME280;1551;51.046;7.010;2023-04-09T13:57:54;101654.47;;;17.83;nan
3082;BME280;1551;51.046;7.010;2023-04-09T14:00:43;101657.84;;;17.86;nan
3082;BME280;1551;51.046;7.010;2023-04-09T14:03:32;101657.13;;;17.80;nan
3082;BME280;1551;51.046;7.010;2023-04-09T14:06:20;101666.03;;;17.70;nan
3082;BME280;1551;51.046;7.010;2023-04-09T14:09:10;101658.19;;;18.07;nan
3082;BME280;1551;51.046;7.010;2023-04-09T14:11:59;101652.00;;;18.77;nan
3082;BME280;1551;51.046;7.010;2023-04-09T14:14:49;101653.84;;;19.59;nan
3082;BME280;1551;51.046;7.010;2023-04-09T14:17:41;101648.53;;;19.36;nan
3082;BME280;1551;51.046;7.010;2023-04-09T14:20:30;101635.44;;;18.82;nan
3082;BME280;1551;51.046;7.010;2023-04-09T14:23:19;101641.69;;;18.75;nan
3082;BME280;1551;51.046;7.010;2023-04-09T14:26:08;101636.94;;;18.89;nan
3082;BME280;1551;51.046;7.010;2023-04-09T14:28:57;101627.69;;;19.38;nan
3082;BME280;1551;51.046;7.010;2023-04-09T14:31:46;101620.94;;;20.11;nan
3082;BME280;1551;51.046;7.010;2023-04-09T14:34:35;101617.41;;;20.12;nan
3082;BME280;1551;51.046;7.010;2023-04-09T14:37:24;101621.06;;;19.55;nan
3082;BME280;1551;51.046;7.010;2023-04-09T14:40:13;101614.56;;;18.85;nan
3082;BME280;1551;51.046;7.010;2023-04-09T14:43:02;101612.22;;;18.76;nan
3082;BME280;1551;51.046;7.010;2023-04-09T14:45:51;101616.63;;;18.74;nan
3082;BME280;1551;51.046;7.010;2023-04-09T14:48:42;101624.75;;;19.48;nan
3082;BME280;1551;51.046;7.010;2023-04-09T14:51:31;101620.41;;;19.75;nan
3082;BME280;1551;51.046;7.010;2023-04-09T14:54:20;101623.72;;;19.26;nan
3082;BME280;1551;51.046;7.010;2023-04-09T14:57:09;101621.91;;;19.28;nan
3082;BME280;1551;51.046;7.010;2023-04-09T14:59:58;101621.50;;;19.42;nan
3082;BME280;1551;51.046;7.010;2023-04-09T15:02:47;101623.22;;;19.13;nan
3082;BME280;1551;51.046;7.010;2023-04-09T15:05:36;101611.09;;;18.86;nan
3082;BME280;1551;51.046;7.010;2023-04-09T15:08:25;101611.88;;;18.88;nan
3082;BME280;1551;51.046;7.010;2023-04-09T15:11:19;101610.72;;;18.69;nan
3082;BME280;1551;51.046;7.010;2023-04-09T15:14:08;101593.16;;;18.48;nan
3082;BME280;1551;51.046;7.010;2023-04-09T15:16:57;101585.09;;;18.59;nan
3082;BME280;1551;51.046;7.010;2023-04-09T15:19:46;101590.41;;;19.12;nan
3082;BME280;1551;51.046;7.010;2023-04-09T15:22:35;101593.44;;;19.25;nan
3082;BME280;1551;51.046;7.010;2023-04-09T15:25:24;101596.53;;;19.38;nan
3082;BME280;1551;51.046;7.010;2023-04-09T15:28:13;101590.50;;;19.37;nan
3082;BME280;1551;51.046;7.010;2023-04-09T15:31:02;101592.22;;;19.09;nan
3082;BME280;1551;51.046;7.010;2023-04-09T15:33:51;101581.19;;;18.73;nan
3082;BME280;1551;51.046;7.010;2023-04-09T15:36:40;101617.94;;;18.87;nan
3082;BME280;1551;51.046;7.010;2023-04-09T15:39:29;101601.69;;;18.82;nan
3082;BME280;1551;51.046;7.010;2023-04-09T15:42:20;101612.38;;;19.01;nan
3082;BME280;1551;51.046;7.010;2023-04-09T15:45:13;101607.63;;;18.86;nan
3082;BME280;1551;51.046;7.010;2023-04-09T15:48:02;101610.97;;;18.60;nan
3082;BME280;1551;51.046;7.010;2023-04-09T15:50:53;101610.00;;;18.32;nan
3082;BME280;1551;51.046;7.010;2023-04-09T15:53:42;101596.63;;;18.16;nan
3082;BME280;1551;51.046;7.010;2023-04-09T15:56:31;101588.53;;;18.28;nan
3082;BME280;1551;51.046;7.010;2023-04-09T15:59:20;101594.38;;;18.35;nan
3082;BME280;1551;51.046;7.010;2023-04-09T16:02:09;101583.91;;;18.07;nan